Map

Track Data

SID SEASON NUMBER BASIN SUBBASIN NAME ISO_TIME NATURE LAT LON WMO_WIND WMO_PRES WMO_AGENCY TRACK_TYPE DIST2LAND LANDFALL IFLAG USA_AGENCY USA_ATCF_ID USA_LAT USA_LON USA_RECORD USA_STATUS USA_WIND USA_PRES USA_SSHS USA_R34_NE USA_R34_SE USA_R34_SW USA_R34_NW USA_R50_NE USA_R50_SE USA_R50_SW USA_R50_NW USA_R64_NE USA_R64_SE USA_R64_SW USA_R64_NW USA_POCI USA_ROCI USA_RMW USA_EYE TOKYO_LAT TOKYO_LON TOKYO_GRADE TOKYO_WIND TOKYO_PRES TOKYO_R50_DIR TOKYO_R50_LONG TOKYO_R50_SHORT TOKYO_R30_DIR TOKYO_R30_LONG TOKYO_R30_SHORT TOKYO_LAND CMA_LAT CMA_LON CMA_CAT CMA_WIND CMA_PRES HKO_LAT HKO_LON HKO_CAT HKO_WIND HKO_PRES NEWDELHI_LAT NEWDELHI_LON NEWDELHI_GRADE NEWDELHI_WIND NEWDELHI_PRES NEWDELHI_CI NEWDELHI_DP NEWDELHI_POCI REUNION_LAT REUNION_LON REUNION_TYPE REUNION_WIND REUNION_PRES REUNION_TNUM REUNION_CI REUNION_RMW REUNION_R34_NE REUNION_R34_SE REUNION_R34_SW REUNION_R34_NW REUNION_R50_NE REUNION_R50_SE REUNION_R50_SW REUNION_R50_NW REUNION_R64_NE REUNION_R64_SE REUNION_R64_SW REUNION_R64_NW BOM_LAT BOM_LON BOM_TYPE BOM_WIND BOM_PRES BOM_TNUM BOM_CI BOM_RMW BOM_R34_NE BOM_R34_SE BOM_R34_SW BOM_R34_NW BOM_R50_NE BOM_R50_SE BOM_R50_SW BOM_R50_NW BOM_R64_NE BOM_R64_SE BOM_R64_SW BOM_R64_NW BOM_ROCI BOM_POCI BOM_EYE BOM_POS_METHOD BOM_PRES_METHOD NADI_LAT NADI_LON NADI_CAT NADI_WIND NADI_PRES WELLINGTON_LAT WELLINGTON_LON WELLINGTON_WIND WELLINGTON_PRES DS824_LAT DS824_LON DS824_STAGE DS824_WIND DS824_PRES TD9636_LAT TD9636_LON TD9636_STAGE TD9636_WIND TD9636_PRES TD9635_LAT TD9635_LON TD9635_WIND TD9635_PRES TD9635_ROCI NEUMANN_LAT NEUMANN_LON NEUMANN_CLASS NEUMANN_WIND NEUMANN_PRES MLC_LAT MLC_LON MLC_CLASS MLC_WIND MLC_PRES USA_GUST BOM_GUST BOM_GUST_PER REUNION_GUST REUNION_GUST_PER USA_SEAHGT USA_SEARAD_NE USA_SEARAD_SE USA_SEARAD_SW USA_SEARAD_NW STORM_SPEED STORM_DIR
1942262N19127 1942 52 WP MM NOT_NAMED 1942-09-18 21:00:00 NR 19.1000 127.300 main 532 532 __________O___ -1 19.1000 127.300 7 18 10
1942262N19127 1942 52 WP MM NOT_NAMED 1942-09-19 00:00:00 NR 20.0036 127.473 main 574 574 __________P___ -1 20.0036 127.473 7 18 12
1942262N19127 1942 52 WP MM NOT_NAMED 1942-09-19 03:00:00 NR 20.8659 127.687 main 630 630 __________P___ -1 20.8659 127.687 7 17 16
1942262N19127 1942 52 WP MM NOT_NAMED 1942-09-19 06:00:00 NR 21.6453 127.982 main 694 691 __________P___ -1 21.6453 127.982 7 16 25
1942262N19127 1942 52 WP MM NOT_NAMED 1942-09-19 09:00:00 NR 22.3000 128.400 main 707 707 __________O___ -1 22.3000 128.400 7 15 38
1942262N19127 1942 52 WP MM NOT_NAMED 1942-09-19 12:00:00 NR 22.8077 128.960 main 747 744 __________P___ -1 22.8077 128.960 7 14 50
1942262N19127 1942 52 WP MM NOT_NAMED 1942-09-19 15:00:00 NR 23.2251 129.601 main 795 795 __________P___ -1 23.2251 129.601 7 14 55
1942262N19127 1942 52 WP MM NOT_NAMED 1942-09-19 18:00:00 NR 23.6297 130.241 main 827 770 __________P___ -1 23.6297 130.241 7 14 51
1942262N19127 1942 52 WP MM NOT_NAMED 1942-09-19 21:00:00 NR 24.1000 130.800 main 770 705 __________O___ -1 24.1000 130.800 7 14 38
1942262N19127 1942 52 WP MM NOT_NAMED 1942-09-20 00:00:00 NR 24.7570 131.205 main 693 630 __________P___ -1 24.7570 131.205 7 15 25
1942262N19127 1942 52 WP MM NOT_NAMED 1942-09-20 03:00:00 NR 25.4888 131.515 main 619 544 __________P___ -1 25.4888 131.515 7 16 18
1942262N19127 1942 52 WP MM NOT_NAMED 1942-09-20 06:00:00 NR 26.2512 131.742 main 533 461 __________P___ -1 26.2512 131.742 7 16 13
1942262N19127 1942 52 WP MM NOT_NAMED 1942-09-20 09:00:00 NR 27.0000 131.900 main 461 407 __________O___ -1 27.0000 131.900 4 13 7
1942262N19127 1942 52 WP MM NOT_NAMED 1942-09-20 12:00:00 NR 27.5448 131.924 main 407 343 __________P___ -1 27.5448 131.924 4 11 0
1942262N19127 1942 52 WP MM NOT_NAMED 1942-09-20 15:00:00 NR 28.0886 131.897 main 343 281 __________P___ -1 28.0886 131.897 4 12 0
1942262N19127 1942 52 WP MM NOT_NAMED 1942-09-20 18:00:00 NR 28.7380 131.922 main 281 214 __________P___ -1 28.7380 131.922 4 15 7
1942262N19127 1942 52 WP MM NOT_NAMED 1942-09-20 21:00:00 NR 29.6000 132.100 main 205 124 __________O___ -1 29.6000 132.100 4 22 15
1942262N19127 1942 52 WP MM NOT_NAMED 1942-09-21 00:00:00 NR 30.8406 132.571 main 132 58 __________P___ -1 30.8406 132.571 4 29 20
1942262N19127 1942 52 WP MM NOT_NAMED 1942-09-21 03:00:00 NR 32.2881 133.222 main 48 0 __________P___ -1 32.2881 133.222 4 32 22
1942262N19127 1942 52 WP MM NOT_NAMED 1942-09-21 06:00:00 NR 33.8162 133.988 main 0 0 __________P___ -1 33.8162 133.988 4 33 24
1942262N19127 1942 52 WP MM NOT_NAMED 1942-09-21 09:00:00 NR 35.3000 134.800 main 0 0 __________O___ -1 35.3000 134.800 4 32 26
1942262N19127 1942 52 WP MM NOT_NAMED 1942-09-21 12:00:00 NR 36.6764 135.691 main 57 48 __________P___ -1 36.6764 135.691 4 30 28
1942262N19127 1942 52 WP MM NOT_NAMED 1942-09-21 15:00:00 NR 37.9733 136.591 main 69 69 __________P___ -1 37.9733 136.591 4 28 28
1942262N19127 1942 52 WP MM NOT_NAMED 1942-09-21 18:00:00 NR 39.1330 137.373 main 189 153 __________P___ -1 39.1330 137.373 4 24 26
1942262N19127 1942 52 WP MM NOT_NAMED 1942-09-21 21:00:00 NR 40.1000 137.900 main 154 150 __________O___ -1 40.1000 137.900 7 18 16
1942262N19127 1942 52 WP MM NOT_NAMED 1942-09-22 00:00:00 NR 40.8234 138.006 main 161 161 __________P___ -1 40.8234 138.006 7 13 358
1942262N19127 1942 52 WP MM NOT_NAMED 1942-09-22 03:00:00 NR 41.3638 137.828 main 182 182 __________P___ -1 41.3638 137.828 7 11 338
1942262N19127 1942 52 WP MM NOT_NAMED 1942-09-22 06:00:00 NR 41.7973 137.484 main 197 197 __________P___ -1 41.7973 137.484 7 10 327
1942262N19127 1942 52 WP MM NOT_NAMED 1942-09-22 09:00:00 NR 42.2000 137.100 main 217 170 __________O___ -1 42.2000 137.100 7 10 328
1942262N19127 1942 52 WP MM NOT_NAMED 1942-09-22 12:00:00 NR 42.6492 136.779 main 170 117 __________P___ -1 42.6492 136.779 7 10 332
1942262N19127 1942 52 WP MM NOT_NAMED 1942-09-22 15:00:00 NR 43.0905 136.458 main 117 71 __________P___ -1 43.0905 136.458 7 10 335
1942262N19127 1942 52 WP MM NOT_NAMED 1942-09-22 18:00:00 NR 43.5614 136.207 main 65 36 __________P___ -1 43.5614 136.207 7 10 346
1942262N19127 1942 52 WP MM NOT_NAMED 1942-09-22 21:00:00 NR 44.1000 136.100 main 36 0 __________O___ -1 44.1000 136.100 7 13 358
1942262N19127 1942 52 WP MM NOT_NAMED 1942-09-23 00:00:00 NR 44.8398 136.139 main 0 0 __________P___ -1 44.8398 136.139 7 15 7
1942262N19127 1942 52 WP MM NOT_NAMED 1942-09-23 03:00:00 NR 45.6356 136.347 main 0 0 __________P___ -1 45.6356 136.347 7 16 15
1942262N19127 1942 52 WP MM NOT_NAMED 1942-09-23 06:00:00 NR 46.3889 136.732 main 0 0 __________P___ -1 46.3889 136.732 7 15 26
1942262N19127 1942 52 WP MM NOT_NAMED 1942-09-23 09:00:00 NR 47.0000 137.300 main 0 0 __________O___ -1 47.0000 137.300 7 13 42
1942262N19127 1942 52 WP MM NOT_NAMED 1942-09-23 12:00:00 NR 47.3951 138.044 main 0 0 __________P___ -1 47.3951 138.044 7 13 61
1942262N19127 1942 52 WP MM NOT_NAMED 1942-09-23 15:00:00 NR 47.6049 138.923 main 0 0 __________P___ -1 47.6049 138.923 7 13 77
1942262N19127 1942 52 WP MM NOT_NAMED 1942-09-23 18:00:00 NR 47.6869 139.890 main 40 40 __________P___ -1 47.6869 139.890 7 13 86
1942262N19127 1942 52 WP MM NOT_NAMED 1942-09-23 21:00:00 NR 47.7000 140.900 main 82 __________O___ -1 47.7000 140.900 7 14 89

Digital Typhoon Data and Search

About IBTrACS Database

This database is a web-friendly format of International Best Track Archive for Climate Stewardship (IBTrACS), a global best track data archive curated by NOAA dating back to 1842.

Updated: 2021-11-26